createdAt,value
2023-02-22T00:01:22.984Z,7.60
2023-02-22T00:03:51.658Z,8.73
2023-02-22T00:06:20.708Z,8.98
2023-02-22T00:08:49.633Z,8.23
2023-02-22T00:11:17.552Z,7.50
2023-02-22T00:13:45.282Z,8.85
2023-02-22T00:16:16.336Z,7.80
2023-02-22T00:18:44.388Z,8.57
2023-02-22T00:21:12.917Z,7.43
2023-02-22T00:23:43.186Z,8.35
2023-02-22T00:26:10.724Z,7.53
2023-02-22T00:28:38.261Z,7.50
2023-02-22T00:31:06.686Z,6.70
2023-02-22T00:33:34.247Z,8.13
2023-02-22T00:36:01.777Z,7.50
2023-02-22T00:38:29.369Z,7.30
2023-02-22T00:40:56.885Z,7.28
2023-02-22T00:43:25.130Z,7.10
2023-02-22T00:45:53.970Z,7.40
2023-02-22T00:48:21.547Z,7.30
2023-02-22T00:50:49.146Z,6.38
2023-02-22T00:53:16.776Z,7.57
2023-02-22T00:55:44.283Z,7.25
2023-02-22T00:58:12.717Z,5.65
2023-02-22T01:03:08.439Z,6.00
2023-02-22T01:05:36.360Z,7.20
2023-02-22T01:08:06.475Z,7.28
2023-02-22T01:10:34.991Z,7.50
2023-02-22T01:13:08.356Z,5.75
2023-02-22T01:15:36.743Z,7.25
2023-02-22T01:18:05.094Z,7.18
2023-02-22T01:20:32.814Z,7.25
2023-02-22T01:23:00.713Z,6.93
2023-02-22T01:25:30.325Z,7.07
2023-02-22T01:27:58.370Z,6.10
2023-02-22T01:30:27.294Z,6.25
2023-02-22T01:32:54.921Z,6.55
2023-02-22T01:35:24.299Z,7.38
2023-02-22T01:37:51.816Z,7.20
2023-02-22T01:40:20.673Z,7.28
2023-02-22T01:42:49.208Z,7.15
2023-02-22T01:45:32.419Z,7.43
2023-02-22T01:48:09.336Z,7.15
2023-02-22T01:50:38.444Z,7.55
2023-02-22T01:53:06.335Z,7.55
2023-02-22T01:55:33.934Z,7.53
2023-02-22T01:58:01.571Z,6.88
2023-02-22T02:00:30.556Z,6.18
2023-02-22T02:03:02.926Z,6.43
2023-02-22T02:05:31.365Z,5.80
2023-02-22T02:07:59.294Z,6.03
2023-02-22T02:10:27.650Z,6.57
2023-02-22T02:12:55.186Z,6.57
2023-02-22T02:15:28.879Z,6.15
2023-02-22T02:17:56.908Z,6.50
2023-02-22T02:20:37.519Z,6.22
2023-02-22T02:23:09.243Z,6.60
2023-02-22T02:25:37.713Z,6.30
2023-02-22T02:28:14.585Z,6.97
2023-02-22T02:31:01.309Z,7.80
2023-02-22T02:33:41.205Z,6.25
2023-02-22T02:36:09.780Z,6.93
2023-02-22T02:38:40.563Z,7.50
2023-02-22T02:41:10.773Z,8.23
2023-02-22T02:43:41.127Z,7.38
2023-02-22T02:46:08.722Z,7.30
2023-02-22T02:48:36.361Z,5.97
2023-02-22T02:51:04.461Z,8.18
2023-02-22T02:53:33.750Z,7.65
2023-02-22T02:56:02.619Z,7.10
2023-02-22T02:58:30.237Z,7.57
2023-02-22T03:00:58.103Z,6.68
2023-02-22T03:04:00.987Z,7.32
2023-02-22T03:06:46.776Z,6.47
2023-02-22T03:09:19.287Z,7.72
2023-02-22T03:12:02.727Z,7.15
2023-02-22T03:14:38.462Z,6.20
2023-02-22T03:17:12.116Z,7.28
2023-02-22T03:19:40.017Z,8.20
2023-02-22T03:22:08.868Z,7.43
2023-02-22T03:24:53.622Z,6.97
2023-02-22T03:27:43.302Z,7.63
2023-02-22T03:30:12.902Z,7.05
2023-02-22T03:32:41.474Z,7.63
2023-02-22T03:35:13.597Z,6.93
2023-02-22T03:37:41.724Z,6.80
2023-02-22T03:40:14.243Z,6.68
2023-02-22T03:42:49.252Z,7.40
2023-02-22T03:45:18.087Z,7.03
2023-02-22T03:47:46.864Z,7.30
2023-02-22T03:50:19.490Z,6.65
2023-02-22T03:52:47.498Z,6.20
2023-02-22T03:55:23.651Z,6.38
2023-02-22T03:57:52.341Z,6.88
2023-02-22T04:00:24.048Z,6.95
2023-02-22T04:02:51.654Z,7.32
2023-02-22T04:05:21.229Z,7.40
2023-02-22T04:07:49.339Z,7.10
2023-02-22T04:10:17.083Z,7.07
2023-02-22T04:12:45.008Z,6.88
2023-02-22T04:15:13.329Z,6.78
2023-02-22T04:20:11.610Z,6.65
2023-02-22T04:22:47.052Z,5.30
2023-02-22T04:25:15.676Z,5.30
2023-02-22T04:27:43.660Z,4.78
2023-02-22T04:30:11.721Z,5.65
2023-02-22T04:35:07.641Z,4.88
2023-02-22T04:37:35.800Z,5.50
2023-02-22T04:40:10.533Z,5.72
2023-02-22T04:42:39.059Z,5.05
2023-02-22T04:45:07.987Z,5.03
2023-02-22T04:47:36.441Z,5.57
2023-02-22T04:50:05.222Z,4.88
2023-02-22T04:52:32.788Z,5.43
2023-02-22T04:55:00.855Z,5.07
2023-02-22T04:57:28.390Z,6.10
2023-02-22T04:59:56.374Z,6.85
2023-02-22T05:02:25.569Z,6.90
2023-02-22T05:04:53.187Z,5.55
2023-02-22T05:07:20.772Z,5.85
2023-02-22T05:09:48.324Z,5.03
2023-02-22T05:12:15.859Z,5.15
2023-02-22T05:14:44.429Z,5.00
2023-02-22T05:17:12.018Z,5.20
2023-02-22T05:19:39.614Z,5.35
2023-02-22T05:22:07.133Z,6.15
2023-02-22T05:24:34.954Z,4.15
2023-02-22T05:27:02.498Z,6.10
2023-02-22T05:29:30.061Z,6.63
2023-02-22T05:31:58.258Z,6.30
2023-02-22T05:36:53.271Z,6.05
2023-02-22T05:39:20.783Z,5.93
2023-02-22T05:41:48.383Z,7.47
2023-02-22T05:44:15.918Z,6.90
2023-02-22T05:46:43.531Z,5.97
2023-02-22T05:49:11.259Z,6.72
2023-02-22T05:51:38.785Z,6.03
2023-02-22T05:54:06.338Z,5.55
2023-02-22T05:56:33.873Z,8.35
2023-02-22T05:59:01.577Z,7.28
2023-02-22T06:01:29.114Z,5.15
2023-02-22T06:03:56.649Z,5.20
2023-02-22T06:06:24.201Z,6.53
2023-02-22T06:08:51.718Z,6.90
2023-02-22T06:11:19.847Z,8.10
2023-02-22T06:16:14.964Z,7.97
2023-02-22T06:18:42.515Z,6.32
2023-02-22T06:21:10.057Z,6.53
2023-02-22T06:23:37.571Z,7.35
2023-02-22T06:26:05.806Z,7.40
2023-02-22T06:31:00.720Z,7.88
2023-02-22T06:33:28.269Z,8.52
2023-02-22T06:35:55.781Z,8.27
2023-02-22T06:38:23.865Z,9.02
2023-02-22T06:40:51.403Z,8.00
2023-02-22T06:43:19.199Z,5.85
2023-02-22T06:45:46.855Z,7.72
2023-02-22T06:48:14.418Z,8.57
2023-02-22T06:50:41.929Z,7.57
2023-02-22T06:53:09.590Z,5.72
2023-02-22T06:55:37.320Z,7.68
2023-02-22T06:58:04.976Z,7.05
2023-02-22T07:00:32.660Z,6.72
2023-02-22T07:03:00.356Z,7.63
2023-02-22T07:05:28.048Z,6.15
2023-02-22T07:07:56.146Z,6.13
2023-02-22T07:10:25.369Z,7.68
2023-02-22T07:12:53.124Z,7.85
2023-02-22T07:15:21.642Z,6.85
2023-02-22T07:17:49.164Z,6.97
2023-02-22T07:20:17.148Z,7.43
2023-02-22T07:22:44.899Z,7.50
2023-02-22T07:25:12.511Z,5.57
2023-02-22T07:27:41.417Z,6.75
2023-02-22T07:30:09.606Z,6.45
2023-02-22T07:32:37.248Z,6.70
2023-02-22T07:35:04.869Z,5.10
2023-02-22T07:37:32.453Z,6.47
2023-02-22T07:39:59.985Z,5.22
2023-02-22T07:42:27.510Z,5.53
2023-02-22T07:44:55.064Z,4.70
2023-02-22T07:47:22.573Z,5.10
2023-02-22T07:49:50.275Z,5.22
2023-02-22T07:52:17.921Z,4.68
2023-02-22T07:54:47.630Z,2.97
2023-02-22T07:57:16.032Z,3.75
2023-02-22T07:59:43.589Z,3.58
2023-02-22T08:02:14.819Z,3.60
2023-02-22T08:04:42.351Z,3.70
2023-02-22T08:07:09.864Z,3.72
2023-02-22T08:09:37.387Z,3.03
2023-02-22T08:12:04.972Z,2.97
2023-02-22T08:14:32.522Z,2.78
2023-02-22T08:17:00.132Z,3.05
2023-02-22T08:19:27.856Z,2.17
2023-02-22T08:21:55.375Z,3.03
2023-02-22T08:24:22.908Z,2.80
2023-02-22T08:26:50.459Z,4.55
2023-02-22T08:29:18.204Z,2.67
2023-02-22T08:31:50.955Z,5.75
2023-02-22T08:34:18.703Z,2.80
2023-02-22T08:36:46.311Z,2.60
2023-02-22T08:39:13.852Z,2.42
2023-02-22T08:41:41.392Z,2.58
2023-02-22T08:44:09.056Z,2.28
2023-02-22T08:46:36.574Z,2.38
2023-02-22T08:49:04.122Z,2.25
2023-02-22T08:51:34.694Z,2.33
2023-02-22T08:54:03.390Z,2.58
2023-02-22T08:56:31.082Z,2.40
2023-02-22T08:58:58.621Z,2.40
2023-02-22T09:01:33.002Z,3.00
2023-02-22T09:04:01.339Z,2.78
2023-02-22T09:06:29.515Z,2.47
2023-02-22T09:08:57.139Z,2.88
2023-02-22T09:11:24.670Z,3.13
2023-02-22T09:13:52.169Z,2.38
2023-02-22T09:16:19.828Z,3.00
2023-02-22T09:18:47.757Z,2.53
2023-02-22T09:21:15.743Z,1.73
2023-02-22T09:23:43.502Z,2.38
2023-02-22T09:26:11.020Z,2.05
2023-02-22T09:28:38.516Z,1.73
2023-02-22T09:31:06.029Z,1.77
2023-02-22T09:33:33.585Z,1.35
2023-02-22T09:36:02.354Z,2.40
2023-02-22T09:38:30.278Z,1.85
2023-02-22T09:41:12.114Z,1.60
2023-02-22T09:43:42.638Z,2.28
2023-02-22T09:46:13.676Z,1.75
2023-02-22T09:48:45.311Z,1.50
2023-02-22T09:51:15.104Z,2.13
2023-02-22T09:53:43.520Z,1.90
2023-02-22T09:56:15.354Z,1.75
2023-02-22T09:58:46.714Z,1.65
2023-02-22T10:01:32.484Z,2.67
2023-02-22T10:04:09.228Z,2.20
2023-02-22T10:06:36.775Z,1.60
2023-02-22T10:09:10.030Z,3.03
2023-02-22T10:11:56.662Z,1.75
2023-02-22T10:14:31.363Z,2.05
2023-02-22T10:17:17.745Z,2.15
2023-02-22T10:19:53.711Z,1.63
2023-02-22T10:22:40.721Z,2.47
2023-02-22T10:25:12.834Z,2.17
2023-02-22T10:27:41.222Z,1.95
2023-02-22T10:30:24.145Z,1.92
2023-02-22T10:33:00.438Z,2.03
2023-02-22T10:35:29.709Z,1.60
2023-02-22T10:37:59.128Z,1.23
2023-02-22T10:40:32.157Z,2.08
2023-02-22T10:43:01.897Z,1.10
2023-02-22T10:45:32.181Z,1.40
2023-02-22T10:48:00.634Z,1.15
2023-02-22T10:50:29.458Z,1.38
2023-02-22T10:52:57.051Z,0.95
2023-02-22T10:57:52.458Z,1.40
2023-02-22T11:00:26.356Z,1.70
2023-02-22T11:02:57.881Z,1.60
2023-02-22T11:05:36.851Z,1.95
2023-02-22T11:08:19.746Z,1.70
2023-02-22T11:10:47.828Z,1.75
2023-02-22T11:13:38.397Z,1.50
2023-02-22T11:16:29.128Z,1.25
2023-02-22T11:19:03.497Z,1.30
2023-02-22T11:21:32.115Z,1.58
2023-02-22T11:24:08.414Z,1.10
2023-02-22T11:26:43.698Z,1.30
2023-02-22T11:29:11.927Z,1.10
2023-02-22T11:31:43.189Z,1.00
2023-02-22T11:34:25.304Z,1.25
2023-02-22T11:36:52.811Z,1.60
2023-02-22T11:39:24.742Z,1.98
2023-02-22T11:41:52.352Z,1.73
2023-02-22T11:44:23.616Z,1.48
2023-02-22T11:46:51.406Z,1.20
2023-02-22T11:49:20.073Z,1.27
2023-02-22T11:52:03.615Z,1.50
2023-02-22T11:54:52.540Z,1.30
2023-02-22T11:57:28.016Z,1.10
2023-02-22T11:59:55.728Z,0.98
2023-02-22T12:02:30.351Z,1.30
2023-02-22T12:05:30.364Z,0.90
2023-02-22T12:08:10.746Z,1.05
2023-02-22T12:10:55.521Z,1.10
2023-02-22T12:13:23.375Z,1.00
2023-02-22T12:15:50.944Z,1.08
2023-02-22T12:18:18.466Z,0.77
2023-02-22T12:20:47.551Z,0.95
2023-02-22T12:23:19.451Z,0.80
2023-02-22T12:25:58.333Z,1.10
2023-02-22T12:28:36.513Z,1.35
2023-02-22T12:31:22.936Z,1.10
2023-02-22T12:33:52.785Z,0.95
2023-02-22T12:36:21.587Z,1.20
2023-02-22T12:38:52.213Z,0.90
2023-02-22T12:41:29.686Z,1.00
2023-02-22T12:44:05.002Z,1.30
2023-02-22T12:46:35.659Z,1.10
2023-02-22T12:49:05.972Z,1.02
2023-02-22T12:51:44.183Z,0.85
2023-02-22T12:54:27.920Z,0.65
2023-02-22T12:56:56.760Z,1.20
2023-02-22T12:59:32.680Z,1.30
2023-02-22T13:02:26.587Z,1.50
2023-02-22T13:04:54.148Z,1.20
2023-02-22T13:07:25.385Z,1.85
2023-02-22T13:09:59.508Z,1.33
2023-02-22T13:12:45.811Z,1.00
2023-02-22T13:15:13.312Z,1.45
2023-02-22T13:17:52.836Z,0.80
2023-02-22T13:20:23.241Z,0.77
2023-02-22T13:22:53.001Z,0.90
2023-02-22T13:25:20.477Z,0.70
2023-02-22T13:27:50.917Z,1.00
2023-02-22T13:30:37.703Z,0.68
2023-02-22T13:33:05.285Z,0.60
2023-02-22T13:35:38.670Z,2.00
2023-02-22T13:38:22.942Z,0.73
2023-02-22T13:40:53.319Z,0.70
2023-02-22T13:43:27.127Z,0.70
2023-02-22T13:46:13.703Z,0.80
2023-02-22T13:49:00.094Z,0.80
2023-02-22T13:51:46.145Z,0.70
2023-02-22T13:54:21.800Z,0.50
2023-02-22T13:56:49.837Z,0.73
2023-02-22T14:01:48.566Z,0.65
2023-02-22T14:04:19.881Z,0.60
2023-02-22T14:06:48.921Z,0.40
2023-02-22T14:09:19.971Z,0.60
2023-02-22T14:11:48.271Z,1.92
2023-02-22T14:14:17.684Z,0.60
2023-02-22T14:16:45.272Z,0.40
2023-02-22T14:19:22.860Z,0.68
2023-02-22T14:21:57.445Z,0.55
2023-02-22T14:24:25.025Z,0.52
2023-02-22T14:27:04.802Z,0.73
2023-02-22T14:29:32.359Z,1.45
2023-02-22T14:32:04.423Z,0.50
2023-02-22T14:34:40.306Z,0.63
2023-02-22T14:37:09.303Z,0.57
2023-02-22T14:39:38.297Z,0.55
2023-02-22T14:42:12.428Z,1.83
2023-02-22T14:45:00.130Z,2.35
2023-02-22T14:50:06.639Z,2.70
2023-02-22T14:52:35.910Z,2.58
2023-02-22T14:55:08.251Z,2.65
2023-02-22T14:57:38.585Z,2.10
2023-02-22T15:00:20.218Z,2.00
2023-02-22T15:02:48.370Z,2.20
2023-02-22T15:05:19.510Z,2.38
2023-02-22T15:07:54.225Z,2.08
2023-02-22T15:10:24.102Z,2.25
2023-02-22T15:12:52.544Z,2.42
2023-02-22T15:15:21.885Z,2.33
2023-02-22T15:17:52.908Z,2.08
2023-02-22T15:20:20.741Z,2.00
2023-02-22T15:22:49.404Z,1.85
2023-02-22T15:25:16.949Z,2.00
2023-02-22T15:27:46.785Z,2.58
2023-02-22T15:30:19.088Z,2.30
2023-02-22T15:33:02.716Z,2.58
2023-02-22T15:35:31.694Z,2.35
2023-02-22T15:38:08.954Z,2.08
2023-02-22T15:40:36.528Z,2.15
2023-02-22T15:43:10.558Z,2.20
2023-02-22T15:45:42.758Z,2.10
2023-02-22T15:48:15.782Z,1.75
2023-02-22T15:50:59.085Z,2.08
2023-02-22T15:53:27.628Z,2.33
2023-02-22T15:55:59.232Z,2.10
2023-02-22T15:58:29.041Z,2.38
2023-02-22T16:01:01.119Z,2.65
2023-02-22T16:03:33.145Z,2.45
2023-02-22T16:06:00.830Z,3.25
2023-02-22T16:08:54.017Z,2.90
2023-02-22T16:11:22.222Z,3.35
2023-02-22T16:13:53.340Z,2.72
2023-02-22T16:16:21.449Z,2.42
2023-02-22T16:18:49.384Z,4.28
2023-02-22T16:21:18.009Z,2.80
2023-02-22T16:23:57.396Z,3.25
2023-02-22T16:26:29.552Z,3.40
2023-02-22T16:28:57.194Z,3.30
2023-02-22T16:31:25.872Z,2.10
2023-02-22T16:33:54.001Z,2.63
2023-02-22T16:36:22.473Z,2.50
2023-02-22T16:38:53.711Z,2.47
2023-02-22T16:41:21.257Z,2.65
2023-02-22T16:43:51.053Z,2.15
2023-02-22T16:46:21.853Z,3.33
2023-02-22T16:48:49.476Z,3.83
2023-02-22T16:51:21.766Z,2.80
2023-02-22T16:53:49.393Z,2.92
2023-02-22T16:56:18.340Z,3.10
2023-02-22T16:58:46.251Z,2.75
2023-02-22T17:01:13.961Z,3.40
2023-02-22T17:03:41.555Z,3.17
2023-02-22T17:06:11.834Z,3.63
2023-02-22T17:08:40.019Z,4.05
2023-02-22T17:11:07.992Z,3.65
2023-02-22T17:13:35.495Z,5.30
2023-02-22T17:16:03.125Z,4.85
2023-02-22T17:18:33.994Z,4.18
2023-02-22T17:21:02.985Z,5.25
2023-02-22T17:23:30.576Z,6.05
2023-02-22T17:26:01.997Z,6.72
2023-02-22T17:28:29.718Z,5.68
2023-02-22T17:31:01.235Z,5.32
2023-02-22T17:33:32.847Z,4.32
2023-02-22T17:36:01.821Z,4.82
2023-02-22T17:38:30.189Z,4.63
2023-02-22T17:43:25.444Z,5.22
2023-02-22T17:45:53.828Z,4.80
2023-02-22T17:48:23.884Z,5.05
2023-02-22T17:50:51.859Z,4.35
2023-02-22T17:53:22.379Z,5.57
2023-02-22T17:55:49.987Z,5.28
2023-02-22T17:58:17.879Z,5.10
2023-02-22T18:00:46.729Z,4.93
2023-02-22T18:03:21.557Z,5.20
2023-02-22T18:05:49.705Z,5.22
2023-02-22T18:08:17.250Z,5.18
2023-02-22T18:10:44.820Z,5.60
2023-02-22T18:13:18.596Z,5.88
2023-02-22T18:15:46.612Z,6.20
2023-02-22T18:18:14.819Z,4.63
2023-02-22T18:20:44.211Z,4.72
2023-02-22T18:23:13.500Z,4.47
2023-02-22T18:25:41.562Z,4.15
2023-02-22T18:28:09.754Z,4.47
2023-02-22T18:30:38.082Z,3.67
2023-02-22T18:35:33.020Z,4.63
2023-02-22T18:38:00.772Z,3.97
2023-02-22T18:40:28.276Z,4.65
2023-02-22T18:42:55.785Z,4.32
2023-02-22T18:45:23.303Z,5.07
2023-02-22T18:47:50.808Z,4.82
2023-02-22T18:50:18.511Z,4.88
2023-02-22T18:52:46.113Z,5.38
2023-02-22T18:55:17.791Z,5.15
2023-02-22T18:57:45.644Z,5.43
2023-02-22T19:00:14.374Z,5.50
2023-02-22T19:02:43.493Z,7.10
2023-02-22T19:05:11.578Z,7.55
2023-02-22T19:07:39.676Z,8.05
2023-02-22T19:10:07.531Z,8.10
2023-02-22T19:12:35.126Z,7.60
2023-02-22T19:15:02.633Z,7.45
2023-02-22T19:17:31.019Z,7.40
2023-02-22T19:19:58.598Z,8.23
2023-02-22T19:22:26.267Z,7.93
2023-02-22T19:24:54.101Z,7.65
2023-02-22T19:27:21.879Z,8.40
2023-02-22T19:29:50.168Z,7.05
2023-02-22T19:32:17.869Z,6.80
2023-02-22T19:34:45.532Z,6.68
2023-02-22T19:37:13.255Z,6.95
2023-02-22T19:39:42.277Z,8.60
2023-02-22T19:42:10.215Z,8.70
2023-02-22T19:44:37.954Z,8.98
2023-02-22T19:47:09.068Z,9.45
2023-02-22T19:49:37.574Z,10.18
2023-02-22T19:52:06.504Z,10.43
2023-02-22T19:54:34.154Z,9.73
2023-02-22T19:57:02.069Z,10.10
2023-02-22T19:59:29.683Z,10.23
2023-02-22T20:01:57.349Z,10.25
2023-02-22T20:04:25.079Z,10.77
2023-02-22T20:06:57.491Z,10.20
2023-02-22T20:09:29.728Z,9.43
2023-02-22T20:11:57.431Z,10.68
2023-02-22T20:14:25.985Z,10.48
2023-02-22T20:16:53.840Z,10.00
2023-02-22T20:19:22.565Z,9.63
2023-02-22T20:21:50.233Z,11.50
2023-02-22T20:24:18.402Z,10.32
2023-02-22T20:26:46.642Z,10.55
2023-02-22T20:29:14.334Z,11.50
2023-02-22T20:31:42.475Z,10.27
2023-02-22T20:34:10.366Z,10.88
2023-02-22T20:36:38.770Z,10.80
2023-02-22T20:41:41.373Z,9.85
2023-02-22T20:46:37.530Z,10.43
2023-02-22T20:49:07.270Z,10.98
2023-02-22T20:51:34.972Z,10.68
2023-02-22T20:54:02.562Z,11.90
2023-02-22T20:56:30.704Z,8.10
2023-02-22T20:58:58.691Z,10.88
2023-02-22T21:01:26.296Z,11.15
2023-02-22T21:03:53.803Z,11.65
2023-02-22T21:06:23.260Z,12.55
2023-02-22T21:08:53.542Z,11.90
2023-02-22T21:11:21.406Z,11.00
2023-02-22T21:13:48.976Z,11.35
2023-02-22T21:16:17.863Z,9.85
2023-02-22T21:18:45.466Z,10.77
2023-02-22T21:21:13.374Z,11.18
2023-02-22T21:23:41.670Z,11.23
2023-02-22T21:28:53.136Z,11.43
2023-02-22T21:31:22.665Z,11.00
2023-02-22T21:33:51.205Z,11.32
2023-02-22T21:36:18.868Z,11.00
2023-02-22T21:38:53.123Z,10.85
2023-02-22T21:41:21.258Z,11.45
2023-02-22T21:43:52.129Z,12.07
2023-02-22T21:46:19.800Z,12.07
2023-02-22T21:48:50.215Z,11.93
2023-02-22T21:51:31.272Z,11.35
2023-02-22T21:54:00.973Z,11.93
2023-02-22T21:56:28.676Z,11.50
2023-02-22T21:58:59.100Z,11.20
2023-02-22T22:01:28.294Z,11.57
2023-02-22T22:03:56.377Z,10.82
2023-02-22T22:06:23.920Z,10.95
2023-02-22T22:08:53.573Z,10.85
2023-02-22T22:11:21.640Z,11.27
2023-02-22T22:13:49.256Z,10.75
2023-02-22T22:16:18.294Z,11.60
2023-02-22T22:18:46.032Z,11.70
2023-02-22T22:21:16.397Z,12.40
2023-02-22T22:23:46.871Z,12.07
2023-02-22T22:26:16.209Z,12.95
2023-02-22T22:28:47.629Z,10.90
2023-02-22T22:31:15.408Z,11.95
2023-02-22T22:33:43.254Z,13.13
2023-02-22T22:36:11.237Z,11.15
2023-02-22T22:38:38.771Z,12.00
2023-02-22T22:41:06.690Z,11.88
2023-02-22T22:43:35.169Z,12.80
2023-02-22T22:46:06.264Z,14.02
2023-02-22T22:48:35.936Z,11.68
2023-02-22T22:51:09.743Z,12.48
2023-02-22T22:53:38.472Z,12.57
2023-02-22T22:56:06.137Z,12.93
2023-02-22T22:58:36.476Z,12.07
2023-02-22T23:01:06.715Z,12.10
2023-02-22T23:03:37.375Z,12.13
2023-02-22T23:06:05.247Z,12.55
2023-02-22T23:08:42.918Z,12.05
2023-02-22T23:11:11.644Z,11.80
2023-02-22T23:13:39.502Z,13.13
2023-02-22T23:16:12.019Z,12.65
2023-02-22T23:18:43.120Z,12.48
2023-02-22T23:21:10.886Z,12.07
2023-02-22T23:23:38.607Z,12.43
2023-02-22T23:26:18.354Z,13.00
2023-02-22T23:28:46.550Z,12.98
2023-02-22T23:31:14.972Z,13.05
2023-02-22T23:33:42.958Z,12.13
2023-02-22T23:36:12.299Z,12.38
2023-02-22T23:38:41.763Z,12.32
2023-02-22T23:41:10.292Z,12.68
2023-02-22T23:43:40.328Z,12.85
2023-02-22T23:46:12.172Z,12.88
2023-02-22T23:48:46.513Z,12.57
2023-02-22T23:51:14.856Z,12.73
2023-02-22T23:56:14.156Z,12.63
